sensor_id;sensor_type;location;lat;lon;timestamp;pressure;altitude;pressure_sealevel;temperature;humidity
59419;BME280;45224;50.904;6.038;2023-03-16T00:01:11;100043.88;;;4.96;63.10
59419;BME280;45224;50.904;6.038;2023-03-16T00:02:42;100043.97;;;4.99;63.04
59419;BME280;45224;50.904;6.038;2023-03-16T00:04:13;100033.81;;;5.02;62.99
59419;BME280;45224;50.904;6.038;2023-03-16T00:05:50;100032.06;;;4.99;62.96
59419;BME280;45224;50.904;6.038;2023-03-16T00:07:21;100027.75;;;4.98;63.19
59419;BME280;45224;50.904;6.038;2023-03-16T00:08:52;100032.94;;;5.01;63.09
59419;BME280;45224;50.904;6.038;2023-03-16T00:10:28;100032.09;;;5.01;63.03
59419;BME280;45224;50.904;6.038;2023-03-16T00:12:01;100030.44;;;5.03;62.87
59419;BME280;45224;50.904;6.038;2023-03-16T00:13:32;100027.81;;;5.01;63.14
59419;BME280;45224;50.904;6.038;2023-03-16T00:15:03;100039.03;;;5.05;62.87
59419;BME280;45224;50.904;6.038;2023-03-16T00:16:33;100037.91;;;4.95;62.79
59419;BME280;45224;50.904;6.038;2023-03-16T00:18:04;100021.44;;;4.85;62.95
59419;BME280;45224;50.904;6.038;2023-03-16T00:19:35;100014.63;;;4.87;62.86
59419;BME280;45224;50.904;6.038;2023-03-16T00:21:05;100023.31;;;4.92;62.76
59419;BME280;45224;50.904;6.038;2023-03-16T00:22:36;100021.75;;;4.98;62.87
59419;BME280;45224;50.904;6.038;2023-03-16T00:24:07;100018.44;;;5.02;63.04
59419;BME280;45224;50.904;6.038;2023-03-16T00:25:37;100029.50;;;4.99;63.11
59419;BME280;45224;50.904;6.038;2023-03-16T00:27:09;100023.47;;;4.99;63.14
59419;BME280;45224;50.904;6.038;2023-03-16T00:28:43;100025.31;;;5.03;62.91
59419;BME280;45224;50.904;6.038;2023-03-16T00:30:14;100020.19;;;5.03;62.49
59419;BME280;45224;50.904;6.038;2023-03-16T00:31:45;100015.22;;;5.09;62.71
59419;BME280;45224;50.904;6.038;2023-03-16T00:33:15;100022.66;;;5.00;62.92
59419;BME280;45224;50.904;6.038;2023-03-16T00:34:46;100016.78;;;5.04;62.39
59419;BME280;45224;50.904;6.038;2023-03-16T00:36:17;100010.72;;;5.00;63.34
59419;BME280;45224;50.904;6.038;2023-03-16T00:37:47;100011.59;;;5.01;63.03
59419;BME280;45224;50.904;6.038;2023-03-16T00:39:17;99997.63;;;4.89;63.67
59419;BME280;45224;50.904;6.038;2023-03-16T00:40:50;100001.09;;;4.91;63.28
59419;BME280;45224;50.904;6.038;2023-03-16T00:42:22;99992.44;;;4.86;64.19
59419;BME280;45224;50.904;6.038;2023-03-16T00:43:56;100005.38;;;4.91;63.76
59419;BME280;45224;50.904;6.038;2023-03-16T00:45:27;99995.88;;;4.88;64.21
59419;BME280;45224;50.904;6.038;2023-03-16T00:46:57;99995.16;;;4.94;63.61
59419;BME280;45224;50.904;6.038;2023-03-16T00:48:28;99994.94;;;4.85;64.04
59419;BME280;45224;50.904;6.038;2023-03-16T00:50:01;99987.22;;;4.83;64.58
59419;BME280;45224;50.904;6.038;2023-03-16T00:51:31;99995.13;;;4.92;63.72
59419;BME280;45224;50.904;6.038;2023-03-16T00:53:03;99977.00;;;4.85;63.83
59419;BME280;45224;50.904;6.038;2023-03-16T00:54:34;99981.94;;;4.77;65.05
59419;BME280;45224;50.904;6.038;2023-03-16T00:56:05;99989.03;;;4.87;64.14
59419;BME280;45224;50.904;6.038;2023-03-16T00:57:35;99979.84;;;4.96;64.34
59419;BME280;45224;50.904;6.038;2023-03-16T00:59:06;99977.06;;;4.86;64.97
59419;BME280;45224;50.904;6.038;2023-03-16T01:00:38;99982.09;;;4.83;64.78
59419;BME280;45224;50.904;6.038;2023-03-16T01:02:10;99983.78;;;4.83;64.97
59419;BME280;45224;50.904;6.038;2023-03-16T01:03:41;99984.88;;;4.92;64.56
59419;BME280;45224;50.904;6.038;2023-03-16T01:05:13;99987.59;;;4.99;64.19
59419;BME280;45224;50.904;6.038;2023-03-16T01:06:45;99984.22;;;5.00;64.26
59419;BME280;45224;50.904;6.038;2023-03-16T01:08:15;99988.44;;;4.98;64.60
59419;BME280;45224;50.904;6.038;2023-03-16T01:09:46;99979.88;;;4.97;64.65
59419;BME280;45224;50.904;6.038;2023-03-16T01:11:19;99976.41;;;4.95;64.69
59419;BME280;45224;50.904;6.038;2023-03-16T01:12:51;99977.50;;;5.05;64.05
59419;BME280;45224;50.904;6.038;2023-03-16T01:14:25;99968.88;;;5.01;63.97
59419;BME280;45224;50.904;6.038;2023-03-16T01:15:56;99973.16;;;5.01;64.53
59419;BME280;45224;50.904;6.038;2023-03-16T01:17:26;99965.59;;;5.07;63.83
59419;BME280;45224;50.904;6.038;2023-03-16T01:18:57;99958.31;;;5.22;62.96
59419;BME280;45224;50.904;6.038;2023-03-16T01:20:27;99946.84;;;5.08;63.61
59419;BME280;45224;50.904;6.038;2023-03-16T01:21:57;99952.03;;;5.11;63.65
59419;BME280;45224;50.904;6.038;2023-03-16T01:23:28;99955.34;;;5.07;63.70
59419;BME280;45224;50.904;6.038;2023-03-16T01:24:59;99951.66;;;4.96;63.76
59419;BME280;45224;50.904;6.038;2023-03-16T01:26:31;99945.09;;;5.07;63.03
59419;BME280;45224;50.904;6.038;2023-03-16T01:28:02;99946.69;;;5.02;63.80
59419;BME280;45224;50.904;6.038;2023-03-16T01:29:32;99948.50;;;5.06;63.73
59419;BME280;45224;50.904;6.038;2023-03-16T01:31:06;99939.88;;;5.04;63.67
59419;BME280;45224;50.904;6.038;2023-03-16T01:32:38;99941.47;;;4.99;64.17
59419;BME280;45224;50.904;6.038;2023-03-16T01:34:09;99941.41;;;4.96;63.91
59419;BME280;45224;50.904;6.038;2023-03-16T01:35:53;99929.44;;;4.94;63.90
59419;BME280;45224;50.904;6.038;2023-03-16T01:37:25;99935.41;;;4.95;63.68
59419;BME280;45224;50.904;6.038;2023-03-16T01:39:02;99932.91;;;4.97;63.76
59419;BME280;45224;50.904;6.038;2023-03-16T01:40:38;99928.63;;;4.97;63.58
59419;BME280;45224;50.904;6.038;2023-03-16T01:42:09;99934.25;;;4.82;63.86
59419;BME280;45224;50.904;6.038;2023-03-16T01:43:40;99934.31;;;4.85;63.82
59419;BME280;45224;50.904;6.038;2023-03-16T01:47:19;99915.66;;;4.89;62.85
59419;BME280;45224;50.904;6.038;2023-03-16T01:49:01;99916.44;;;4.87;62.69
59419;BME280;45224;50.904;6.038;2023-03-16T01:50:35;99922.41;;;4.87;62.82
59419;BME280;45224;50.904;6.038;2023-03-16T01:52:12;99909.63;;;4.89;63.28
59419;BME280;45224;50.904;6.038;2023-03-16T01:53:46;99907.69;;;4.79;63.07
59419;BME280;45224;50.904;6.038;2023-03-16T01:55:17;99916.50;;;4.90;62.94
59419;BME280;45224;50.904;6.038;2023-03-16T01:58:21;99915.13;;;5.03;62.41
59419;BME280;45224;50.904;6.038;2023-03-16T02:01:25;99914.03;;;4.93;62.92
59419;BME280;45224;50.904;6.038;2023-03-16T02:02:59;99912.41;;;4.97;62.56
59419;BME280;45224;50.904;6.038;2023-03-16T02:04:49;99909.13;;;5.04;62.14
59419;BME280;45224;50.904;6.038;2023-03-16T02:06:23;99897.91;;;4.99;62.68
59419;BME280;45224;50.904;6.038;2023-03-16T02:07:59;99902.09;;;4.95;62.70
59419;BME280;45224;50.904;6.038;2023-03-16T02:09:35;99908.06;;;4.94;62.74
59419;BME280;45224;50.904;6.038;2023-03-16T02:11:07;99903.03;;;4.99;62.77
59419;BME280;45224;50.904;6.038;2023-03-16T02:12:52;99898.84;;;5.01;62.84
59419;BME280;45224;50.904;6.038;2023-03-16T02:14:22;99898.00;;;5.02;62.73
59419;BME280;45224;50.904;6.038;2023-03-16T02:15:54;99907.00;;;4.86;62.22
59419;BME280;45224;50.904;6.038;2023-03-16T02:17:27;99902.84;;;4.89;62.41
59419;BME280;45224;50.904;6.038;2023-03-16T02:19:07;99898.69;;;4.94;62.39
59419;BME280;45224;50.904;6.038;2023-03-16T02:20:41;99900.38;;;4.94;62.29
59419;BME280;45224;50.904;6.038;2023-03-16T02:22:17;99897.81;;;4.94;62.15
59419;BME280;45224;50.904;6.038;2023-03-16T02:23:48;99900.47;;;4.99;61.77
59419;BME280;45224;50.904;6.038;2023-03-16T02:25:23;99900.41;;;4.96;61.92
59419;BME280;45224;50.904;6.038;2023-03-16T02:27:01;99884.94;;;4.92;62.02
59419;BME280;45224;50.904;6.038;2023-03-16T02:28:48;99894.31;;;4.90;62.57
59419;BME280;45224;50.904;6.038;2023-03-16T02:30:22;99894.47;;;4.97;62.12
59419;BME280;45224;50.904;6.038;2023-03-16T02:32:04;99894.34;;;4.92;61.87
59419;BME280;45224;50.904;6.038;2023-03-16T02:33:35;99895.50;;;5.05;61.49
59419;BME280;45224;50.904;6.038;2023-03-16T02:35:08;99895.34;;;4.99;61.75
59419;BME280;45224;50.904;6.038;2023-03-16T02:36:40;99885.00;;;4.94;61.86
59419;BME280;45224;50.904;6.038;2023-03-16T02:38:13;99890.72;;;4.84;62.10
59419;BME280;45224;50.904;6.038;2023-03-16T02:39:50;99889.34;;;4.97;61.49
59419;BME280;45224;50.904;6.038;2023-03-16T02:41:22;99888.53;;;4.98;61.43
59419;BME280;45224;50.904;6.038;2023-03-16T02:43:19;99885.06;;;4.97;61.59
59419;BME280;45224;50.904;6.038;2023-03-16T02:45:06;99883.31;;;4.94;62.33
59419;BME280;45224;50.904;6.038;2023-03-16T02:46:39;99881.66;;;4.97;61.83
59419;BME280;45224;50.904;6.038;2023-03-16T02:48:16;99885.03;;;4.96;62.41
59419;BME280;45224;50.904;6.038;2023-03-16T02:49:48;99886.69;;;4.93;62.18
59419;BME280;45224;50.904;6.038;2023-03-16T02:51:19;99875.72;;;4.98;61.81
59419;BME280;45224;50.904;6.038;2023-03-16T02:52:50;99886.03;;;5.01;61.87
59419;BME280;45224;50.904;6.038;2023-03-16T02:54:20;99883.34;;;4.96;62.09
59419;BME280;45224;50.904;6.038;2023-03-16T02:55:51;99878.13;;;4.91;61.98
59419;BME280;45224;50.904;6.038;2023-03-16T02:57:21;99882.44;;;4.94;61.89
59419;BME280;45224;50.904;6.038;2023-03-16T02:58:52;99879.13;;;4.98;62.11
59419;BME280;45224;50.904;6.038;2023-03-16T03:00:24;99871.31;;;4.93;61.71
59419;BME280;45224;50.904;6.038;2023-03-16T03:01:55;99880.53;;;4.85;62.37
59419;BME280;45224;50.904;6.038;2023-03-16T03:03:26;99872.69;;;4.79;62.49
59419;BME280;45224;50.904;6.038;2023-03-16T03:04:56;99865.22;;;4.88;62.91
59419;BME280;45224;50.904;6.038;2023-03-16T03:06:30;99877.97;;;4.85;62.38
59419;BME280;45224;50.904;6.038;2023-03-16T03:08:02;99875.28;;;4.81;63.05
59419;BME280;45224;50.904;6.038;2023-03-16T03:09:33;99864.91;;;4.76;62.78
59419;BME280;45224;50.904;6.038;2023-03-16T03:11:03;99872.03;;;4.86;63.14
59419;BME280;45224;50.904;6.038;2023-03-16T03:12:34;99871.09;;;4.84;62.73
59419;BME280;45224;50.904;6.038;2023-03-16T03:14:07;99868.66;;;4.89;62.49
59419;BME280;45224;50.904;6.038;2023-03-16T03:15:40;99866.03;;;4.87;62.60
59419;BME280;45224;50.904;6.038;2023-03-16T03:17:13;99861.84;;;4.89;62.96
59419;BME280;45224;50.904;6.038;2023-03-16T03:18:44;99857.22;;;4.76;63.03
59419;BME280;45224;50.904;6.038;2023-03-16T03:20:15;99864.03;;;4.74;63.93
59419;BME280;45224;50.904;6.038;2023-03-16T03:21:47;99860.03;;;4.85;63.09
59419;BME280;45224;50.904;6.038;2023-03-16T03:23:17;99867.63;;;4.82;63.53
59419;BME280;45224;50.904;6.038;2023-03-16T03:24:48;99859.94;;;4.82;63.46
59419;BME280;45224;50.904;6.038;2023-03-16T03:26:19;99849.16;;;4.96;63.00
59419;BME280;45224;50.904;6.038;2023-03-16T03:27:51;99858.50;;;4.93;63.39
59419;BME280;45224;50.904;6.038;2023-03-16T03:29:24;99860.22;;;4.93;63.45
59419;BME280;45224;50.904;6.038;2023-03-16T03:30:54;99857.63;;;4.91;63.29
59419;BME280;45224;50.904;6.038;2023-03-16T03:32:25;99860.19;;;4.91;63.00
59419;BME280;45224;50.904;6.038;2023-03-16T03:33:55;99856.66;;;4.86;63.47
59419;BME280;45224;50.904;6.038;2023-03-16T03:35:26;99860.84;;;4.84;63.57
59419;BME280;45224;50.904;6.038;2023-03-16T03:36:58;99851.56;;;4.88;63.59
59419;BME280;45224;50.904;6.038;2023-03-16T03:38:29;99850.63;;;4.86;64.16
59419;BME280;45224;50.904;6.038;2023-03-16T03:40:00;99849.84;;;4.88;63.91
59419;BME280;45224;50.904;6.038;2023-03-16T03:41:37;99849.94;;;4.91;63.50
59419;BME280;45224;50.904;6.038;2023-03-16T03:43:09;99854.22;;;4.92;63.82
59419;BME280;45224;50.904;6.038;2023-03-16T03:44:44;99848.88;;;4.83;64.12
59419;BME280;45224;50.904;6.038;2023-03-16T03:46:15;99844.84;;;4.93;64.07
59419;BME280;45224;50.904;6.038;2023-03-16T03:47:45;99852.50;;;4.91;64.00
59419;BME280;45224;50.904;6.038;2023-03-16T03:49:21;99845.69;;;4.93;64.17
59419;BME280;45224;50.904;6.038;2023-03-16T03:50:53;99847.38;;;4.91;63.98
59419;BME280;45224;50.904;6.038;2023-03-16T03:52:40;99839.50;;;4.84;64.75
59419;BME280;45224;50.904;6.038;2023-03-16T03:54:11;99836.22;;;4.89;64.69
59419;BME280;45224;50.904;6.038;2023-03-16T03:56:01;99842.25;;;4.91;64.63
59419;BME280;45224;50.904;6.038;2023-03-16T03:57:32;99845.47;;;4.84;64.49
59419;BME280;45224;50.904;6.038;2023-03-16T03:59:03;99841.25;;;4.85;64.89
59419;BME280;45224;50.904;6.038;2023-03-16T04:00:53;99840.34;;;4.84;64.98
59419;BME280;45224;50.904;6.038;2023-03-16T04:02:23;99846.41;;;4.86;65.34
59419;BME280;45224;50.904;6.038;2023-03-16T04:03:57;99852.47;;;4.90;64.88
59419;BME280;45224;50.904;6.038;2023-03-16T04:05:28;99849.97;;;4.93;64.68
59419;BME280;45224;50.904;6.038;2023-03-16T04:06:58;99847.28;;;4.88;64.73
59419;BME280;45224;50.904;6.038;2023-03-16T04:08:29;99848.09;;;4.87;64.80
59419;BME280;45224;50.904;6.038;2023-03-16T04:10:00;99848.97;;;4.86;65.04
59419;BME280;45224;50.904;6.038;2023-03-16T04:11:37;99852.56;;;4.94;64.55
59419;BME280;45224;50.904;6.038;2023-03-16T04:13:08;99850.91;;;4.97;64.65
59419;BME280;45224;50.904;6.038;2023-03-16T04:14:39;99860.91;;;4.87;65.32
59419;BME280;45224;50.904;6.038;2023-03-16T04:16:12;99854.00;;;4.83;65.47
59419;BME280;45224;50.904;6.038;2023-03-16T04:17:48;99848.88;;;4.83;65.10
59419;BME280;45224;50.904;6.038;2023-03-16T04:19:18;99859.22;;;4.86;65.35
59419;BME280;45224;50.904;6.038;2023-03-16T04:20:49;99855.69;;;4.83;65.16
59419;BME280;45224;50.904;6.038;2023-03-16T04:22:24;99857.47;;;4.85;64.86
59419;BME280;45224;50.904;6.038;2023-03-16T04:23:55;99855.94;;;4.93;64.52
59419;BME280;45224;50.904;6.038;2023-03-16T04:25:33;99856.66;;;4.86;64.94
59419;BME280;45224;50.904;6.038;2023-03-16T04:27:08;99861.72;;;4.85;65.42
59419;BME280;45224;50.904;6.038;2023-03-16T04:28:40;99860.00;;;4.84;65.09
59419;BME280;45224;50.904;6.038;2023-03-16T04:30:14;99848.25;;;4.93;64.84
59419;BME280;45224;50.904;6.038;2023-03-16T04:31:49;99853.31;;;4.90;64.86
59419;BME280;45224;50.904;6.038;2023-03-16T04:33:24;99843.06;;;4.90;65.09
59419;BME280;45224;50.904;6.038;2023-03-16T04:34:54;99842.06;;;4.84;65.18
59419;BME280;45224;50.904;6.038;2023-03-16T04:36:27;99847.44;;;4.94;65.07
59419;BME280;45224;50.904;6.038;2023-03-16T04:37:58;99835.38;;;4.90;65.06
59419;BME280;45224;50.904;6.038;2023-03-16T04:39:38;99835.09;;;4.78;64.92
59419;BME280;45224;50.904;6.038;2023-03-16T04:41:09;99843.84;;;4.86;65.21
59419;BME280;45224;50.904;6.038;2023-03-16T04:42:46;99837.66;;;4.78;65.26
59419;BME280;45224;50.904;6.038;2023-03-16T04:44:21;99829.97;;;4.78;65.42
59419;BME280;45224;50.904;6.038;2023-03-16T04:45:53;99836.22;;;4.89;65.07
59419;BME280;45224;50.904;6.038;2023-03-16T04:47:24;99830.19;;;4.87;64.52
59419;BME280;45224;50.904;6.038;2023-03-16T04:48:55;99833.47;;;4.82;64.90
59419;BME280;45224;50.904;6.038;2023-03-16T04:50:27;99829.41;;;4.90;64.50
59419;BME280;45224;50.904;6.038;2023-03-16T04:51:59;99823.41;;;4.89;64.44
59419;BME280;45224;50.904;6.038;2023-03-16T04:53:31;99825.28;;;4.97;64.71
59419;BME280;45224;50.904;6.038;2023-03-16T04:55:05;99808.91;;;4.90;64.70
59419;BME280;45224;50.904;6.038;2023-03-16T04:56:37;99826.88;;;4.91;64.67
59419;BME280;45224;50.904;6.038;2023-03-16T04:58:13;99818.34;;;4.91;64.89
59419;BME280;45224;50.904;6.038;2023-03-16T04:59:44;99833.50;;;4.83;64.74
59419;BME280;45224;50.904;6.038;2023-03-16T05:01:33;99831.03;;;4.86;64.96
59419;BME280;45224;50.904;6.038;2023-03-16T05:03:07;99833.66;;;4.89;64.66
59419;BME280;45224;50.904;6.038;2023-03-16T05:04:40;99832.75;;;4.87;64.88
59419;BME280;45224;50.904;6.038;2023-03-16T05:06:14;99827.63;;;4.87;64.18
59419;BME280;45224;50.904;6.038;2023-03-16T05:07:45;99826.72;;;4.85;64.53
59419;BME280;45224;50.904;6.038;2023-03-16T05:09:16;99823.34;;;4.86;65.47
59419;BME280;45224;50.904;6.038;2023-03-16T05:10:47;99817.41;;;4.89;64.73
59419;BME280;45224;50.904;6.038;2023-03-16T05:12:18;99827.56;;;4.86;64.85
59419;BME280;45224;50.904;6.038;2023-03-16T05:13:50;99835.44;;;4.93;64.46
59419;BME280;45224;50.904;6.038;2023-03-16T05:15:24;99828.66;;;4.96;64.50
59419;BME280;45224;50.904;6.038;2023-03-16T05:17:11;99823.53;;;4.96;64.60
59419;BME280;45224;50.904;6.038;2023-03-16T05:18:43;99827.13;;;5.04;64.34
59419;BME280;45224;50.904;6.038;2023-03-16T05:20:14;99819.25;;;4.94;64.09
59419;BME280;45224;50.904;6.038;2023-03-16T05:21:48;99817.81;;;5.06;63.84
59419;BME280;45224;50.904;6.038;2023-03-16T05:23:20;99822.78;;;5.00;63.74
59419;BME280;45224;50.904;6.038;2023-03-16T05:24:55;99821.75;;;4.91;64.16
59419;BME280;45224;50.904;6.038;2023-03-16T05:26:26;99815.09;;;5.00;64.39
59419;BME280;45224;50.904;6.038;2023-03-16T05:27:57;99821.13;;;5.02;64.23
59419;BME280;45224;50.904;6.038;2023-03-16T05:29:46;99808.53;;;5.11;63.87
59419;BME280;45224;50.904;6.038;2023-03-16T05:31:17;99816.28;;;5.14;63.93
59419;BME280;45224;50.904;6.038;2023-03-16T05:32:53;99813.66;;;5.11;64.01
59419;BME280;45224;50.904;6.038;2023-03-16T05:34:27;99817.91;;;5.10;64.38
59419;BME280;45224;50.904;6.038;2023-03-16T05:35:57;99812.66;;;5.04;63.88
59419;BME280;45224;50.904;6.038;2023-03-16T05:37:28;99815.97;;;5.00;64.49
59419;BME280;45224;50.904;6.038;2023-03-16T05:39:00;99813.03;;;4.83;64.34
59419;BME280;45224;50.904;6.038;2023-03-16T05:40:36;99818.59;;;5.03;64.30
59419;BME280;45224;50.904;6.038;2023-03-16T05:42:23;99810.78;;;4.99;64.33
59419;BME280;45224;50.904;6.038;2023-03-16T05:44:00;99822.94;;;5.06;64.52
59419;BME280;45224;50.904;6.038;2023-03-16T05:45:41;99824.75;;;5.11;63.94
59419;BME280;45224;50.904;6.038;2023-03-16T05:47:16;99814.47;;;5.10;64.35
59419;BME280;45224;50.904;6.038;2023-03-16T05:48:50;99817.84;;;5.07;64.30
59419;BME280;45224;50.904;6.038;2023-03-16T05:50:23;99820.38;;;5.06;63.85
59419;BME280;45224;50.904;6.038;2023-03-16T05:51:53;99802.25;;;4.98;64.50
59419;BME280;45224;50.904;6.038;2023-03-16T05:53:24;99817.84;;;5.07;64.22
59419;BME280;45224;50.904;6.038;2023-03-16T05:55:00;99818.69;;;5.08;64.58
59419;BME280;45224;50.904;6.038;2023-03-16T05:56:31;99819.53;;;5.07;64.11
59419;BME280;45224;50.904;6.038;2023-03-16T05:58:03;99813.56;;;5.08;64.50
59419;BME280;45224;50.904;6.038;2023-03-16T05:59:34;99815.44;;;5.14;64.16
59419;BME280;45224;50.904;6.038;2023-03-16T06:01:06;99822.31;;;5.16;64.34
59419;BME280;45224;50.904;6.038;2023-03-16T06:02:44;99805.94;;;5.09;64.35
59419;BME280;45224;50.904;6.038;2023-03-16T06:04:18;99828.31;;;5.18;64.64
59419;BME280;45224;50.904;6.038;2023-03-16T06:05:49;99819.00;;;5.20;63.60
59419;BME280;45224;50.904;6.038;2023-03-16T06:07:24;99819.66;;;5.13;64.12
59419;BME280;45224;50.904;6.038;2023-03-16T06:08:57;99816.19;;;5.09;64.67
59419;BME280;45224;50.904;6.038;2023-03-16T06:10:29;99810.25;;;5.12;64.38
59419;BME280;45224;50.904;6.038;2023-03-16T06:12:00;99803.47;;;5.14;64.67
59419;BME280;45224;50.904;6.038;2023-03-16T06:13:30;99801.78;;;5.16;64.41
59419;BME280;45224;50.904;6.038;2023-03-16T06:15:02;99807.03;;;5.21;64.21
59419;BME280;45224;50.904;6.038;2023-03-16T06:16:36;99803.78;;;5.29;64.07
59419;BME280;45224;50.904;6.038;2023-03-16T06:18:07;99810.69;;;5.32;64.14
59419;BME280;45224;50.904;6.038;2023-03-16T06:19:37;99805.31;;;5.21;64.62
59419;BME280;45224;50.904;6.038;2023-03-16T06:21:08;99804.41;;;5.18;64.43
59419;BME280;45224;50.904;6.038;2023-03-16T06:22:40;99819.81;;;5.19;63.88
59419;BME280;45224;50.904;6.038;2023-03-16T06:24:11;99808.72;;;5.20;64.44
59419;BME280;45224;50.904;6.038;2023-03-16T06:25:41;99808.81;;;5.23;64.60
59419;BME280;45224;50.904;6.038;2023-03-16T06:27:14;99807.75;;;5.14;64.47
59419;BME280;45224;50.904;6.038;2023-03-16T06:29:02;99804.47;;;5.21;65.49
59419;BME280;45224;50.904;6.038;2023-03-16T06:30:33;99798.78;;;5.36;64.82
59419;BME280;45224;50.904;6.038;2023-03-16T06:32:04;99797.66;;;5.23;65.46
59419;BME280;45224;50.904;6.038;2023-03-16T06:33:34;99794.22;;;5.21;65.44
59419;BME280;45224;50.904;6.038;2023-03-16T06:35:06;99802.16;;;5.32;64.72
59419;BME280;45224;50.904;6.038;2023-03-16T06:36:39;99789.22;;;5.27;65.48
59419;BME280;45224;50.904;6.038;2023-03-16T06:38:13;99793.56;;;5.31;65.36
59419;BME280;45224;50.904;6.038;2023-03-16T06:40:13;99797.00;;;5.32;65.29
59419;BME280;45224;50.904;6.038;2023-03-16T06:41:44;99803.91;;;5.36;65.50
59419;BME280;45224;50.904;6.038;2023-03-16T06:43:17;99803.09;;;5.37;65.62
59419;BME280;45224;50.904;6.038;2023-03-16T06:44:48;99803.06;;;5.35;65.99
59419;BME280;45224;50.904;6.038;2023-03-16T06:46:19;99801.44;;;5.39;65.78
59419;BME280;45224;50.904;6.038;2023-03-16T06:47:50;99801.44;;;5.39;65.89
59419;BME280;45224;50.904;6.038;2023-03-16T06:49:21;99804.88;;;5.41;66.10
59419;BME280;45224;50.904;6.038;2023-03-16T06:50:52;99805.00;;;5.47;65.78
59419;BME280;45224;50.904;6.038;2023-03-16T06:52:29;99805.88;;;5.46;65.30
59419;BME280;45224;50.904;6.038;2023-03-16T06:53:59;99795.66;;;5.47;64.94
59419;BME280;45224;50.904;6.038;2023-03-16T06:55:30;99793.19;;;5.54;64.79
59419;BME280;45224;50.904;6.038;2023-03-16T06:57:01;99802.41;;;5.45;64.97
59419;BME280;45224;50.904;6.038;2023-03-16T06:58:31;99790.59;;;5.52;64.83
59419;BME280;45224;50.904;6.038;2023-03-16T07:00:03;99797.53;;;5.56;65.07
59419;BME280;45224;50.904;6.038;2023-03-16T07:01:33;99785.63;;;5.60;64.88
59419;BME280;45224;50.904;6.038;2023-03-16T07:03:05;99791.28;;;5.43;64.92
59419;BME280;45224;50.904;6.038;2023-03-16T07:04:36;99792.13;;;5.44;64.82
59419;BME280;45224;50.904;6.038;2023-03-16T07:06:07;99784.59;;;5.52;64.80
59419;BME280;45224;50.904;6.038;2023-03-16T07:07:42;99780.44;;;5.58;64.92
59419;BME280;45224;50.904;6.038;2023-03-16T07:09:13;99789.06;;;5.60;65.15
59419;BME280;45224;50.904;6.038;2023-03-16T07:10:45;99792.50;;;5.62;64.76
59419;BME280;45224;50.904;6.038;2023-03-16T07:12:15;99803.75;;;5.69;64.68
59419;BME280;45224;50.904;6.038;2023-03-16T07:13:46;99801.19;;;5.69;64.21
59419;BME280;45224;50.904;6.038;2023-03-16T07:15:19;99800.41;;;5.73;64.99
59419;BME280;45224;50.904;6.038;2023-03-16T07:16:50;99801.41;;;5.80;64.06
59419;BME280;45224;50.904;6.038;2023-03-16T07:18:22;99801.28;;;5.74;64.50
59419;BME280;45224;50.904;6.038;2023-03-16T07:19:55;99801.44;;;5.81;64.83
59419;BME280;45224;50.904;6.038;2023-03-16T07:21:25;99801.47;;;5.83;64.88
59419;BME280;45224;50.904;6.038;2023-03-16T07:22:56;99804.94;;;5.85;64.67
59419;BME280;45224;50.904;6.038;2023-03-16T07:24:27;99805.00;;;5.88;64.52
59419;BME280;45224;50.904;6.038;2023-03-16T07:25:58;99805.09;;;5.93;64.55
59419;BME280;45224;50.904;6.038;2023-03-16T07:27:29;99804.22;;;5.94;64.61
59419;BME280;45224;50.904;6.038;2023-03-16T07:29:02;99804.94;;;5.85;64.47
59419;BME280;45224;50.904;6.038;2023-03-16T07:30:36;99799.94;;;5.93;64.61
59419;BME280;45224;50.904;6.038;2023-03-16T07:32:08;99812.72;;;5.90;64.88
59419;BME280;45224;50.904;6.038;2023-03-16T07:33:41;99801.47;;;5.84;64.98
59419;BME280;45224;50.904;6.038;2023-03-16T07:35:16;99811.91;;;5.92;64.86
59419;BME280;45224;50.904;6.038;2023-03-16T07:36:48;99816.22;;;5.95;64.97
59419;BME280;45224;50.904;6.038;2023-03-16T07:38:21;99817.25;;;6.01;64.88
59419;BME280;45224;50.904;6.038;2023-03-16T07:39:52;99822.50;;;6.08;64.30
59419;BME280;45224;50.904;6.038;2023-03-16T07:41:23;99799.22;;;5.98;64.08
59419;BME280;45224;50.904;6.038;2023-03-16T07:42:54;99812.16;;;6.05;64.22
59419;BME280;45224;50.904;6.038;2023-03-16T07:44:37;99818.50;;;6.24;64.29
59419;BME280;45224;50.904;6.038;2023-03-16T07:46:12;99809.94;;;6.25;64.72
59419;BME280;45224;50.904;6.038;2023-03-16T07:47:43;99809.59;;;6.05;63.98
59419;BME280;45224;50.904;6.038;2023-03-16T07:49:28;99800.34;;;6.13;64.61
59419;BME280;45224;50.904;6.038;2023-03-16T07:51:00;99809.75;;;6.12;64.77
59419;BME280;45224;50.904;6.038;2023-03-16T07:52:32;99802.09;;;6.14;64.97
59419;BME280;45224;50.904;6.038;2023-03-16T07:54:03;99798.59;;;6.12;65.07
59419;BME280;45224;50.904;6.038;2023-03-16T07:55:36;99798.94;;;6.30;64.58
59419;BME280;45224;50.904;6.038;2023-03-16T07:57:09;99792.06;;;6.29;64.24
59419;BME280;45224;50.904;6.038;2023-03-16T07:58:45;99795.50;;;6.28;63.75
59419;BME280;45224;50.904;6.038;2023-03-16T08:00:17;99793.09;;;6.39;63.87
59419;BME280;45224;50.904;6.038;2023-03-16T08:01:53;99793.28;;;6.50;63.19
59419;BME280;45224;50.904;6.038;2023-03-16T08:03:24;99791.53;;;6.49;63.32
59419;BME280;45224;50.904;6.038;2023-03-16T08:04:54;99798.19;;;6.37;63.52
59419;BME280;45224;50.904;6.038;2023-03-16T08:06:25;99795.69;;;6.40;63.49
59419;BME280;45224;50.904;6.038;2023-03-16T08:07:56;99793.81;;;6.30;63.50
59419;BME280;45224;50.904;6.038;2023-03-16T08:09:29;99800.81;;;6.40;63.31
59419;BME280;45224;50.904;6.038;2023-03-16T08:11:00;99803.56;;;6.50;63.05
59419;BME280;45224;50.904;6.038;2023-03-16T08:12:41;99790.84;;;6.57;63.54
59419;BME280;45224;50.904;6.038;2023-03-16T08:14:12;99795.09;;;6.57;62.94
59419;BME280;45224;50.904;6.038;2023-03-16T08:15:57;99792.69;;;6.66;62.93
59419;BME280;45224;50.904;6.038;2023-03-16T08:17:37;99790.13;;;6.68;62.76
59419;BME280;45224;50.904;6.038;2023-03-16T08:19:15;99799.59;;;6.70;62.41
59419;BME280;45224;50.904;6.038;2023-03-16T08:20:47;99790.25;;;6.74;62.62
59419;BME280;45224;50.904;6.038;2023-03-16T08:22:18;99787.78;;;6.82;62.42
59419;BME280;45224;50.904;6.038;2023-03-16T08:23:50;99791.13;;;6.76;62.59
59419;BME280;45224;50.904;6.038;2023-03-16T08:25:22;99785.28;;;6.85;62.55